createdAt,value
2022-09-17T00:00:58.273Z,99.99
2022-09-17T00:01:58.268Z,99.99
2022-09-17T00:02:58.239Z,99.99
2022-09-17T00:03:58.271Z,99.99
2022-09-17T00:04:58.176Z,99.99
2022-09-17T00:05:58.149Z,99.99
2022-09-17T00:06:58.146Z,99.99
2022-09-17T00:07:58.232Z,99.99
2022-09-17T00:08:58.152Z,99.99
2022-09-17T00:09:58.103Z,99.99
2022-09-17T00:10:58.090Z,99.99
2022-09-17T00:11:58.211Z,99.99
2022-09-17T00:12:58.095Z,99.99
2022-09-17T00:13:58.179Z,99.99
2022-09-17T00:14:58.061Z,99.99
2022-09-17T00:15:58.069Z,99.99
2022-09-17T00:17:01.815Z,99.99
2022-09-17T00:17:58.056Z,99.99
2022-09-17T00:18:58.013Z,99.99
2022-09-17T00:19:58.003Z,99.99
2022-09-17T00:20:58.070Z,99.99
2022-09-17T00:21:58.008Z,99.99
2022-09-17T00:22:57.993Z,99.99
2022-09-17T00:23:57.991Z,99.99
2022-09-17T00:24:57.931Z,99.99
2022-09-17T00:25:57.959Z,99.99
2022-09-17T00:26:57.916Z,99.99
2022-09-17T00:27:58.027Z,99.73
2022-09-17T00:28:57.940Z,99.02
2022-09-17T00:29:57.905Z,98.15
2022-09-17T00:30:57.953Z,97.74
2022-09-17T00:31:57.870Z,97.74
2022-09-17T00:32:57.862Z,97.13
2022-09-17T00:33:57.862Z,97.13
2022-09-17T00:34:57.822Z,97.03
2022-09-17T00:35:57.866Z,96.62
2022-09-17T00:36:57.803Z,96.42
2022-09-17T00:37:57.803Z,96.31
2022-09-17T00:38:57.822Z,97.03
2022-09-17T00:39:57.888Z,97.24
2022-09-17T00:40:57.776Z,97.03
2022-09-17T00:41:57.772Z,96.11
2022-09-17T00:42:57.769Z,95.70
2022-09-17T00:43:58.095Z,96.01
2022-09-17T00:44:57.712Z,97.44
2022-09-17T00:45:57.722Z,97.54
2022-09-17T00:46:57.811Z,97.33
2022-09-17T00:47:57.866Z,97.24
2022-09-17T00:48:57.691Z,97.24
2022-09-17T00:49:57.693Z,97.24
2022-09-17T00:50:57.655Z,95.19
2022-09-17T00:52:00.441Z,96.31
2022-09-17T00:52:57.651Z,95.39
2022-09-17T00:53:57.676Z,95.39
2022-09-17T00:54:57.607Z,96.15
2022-09-17T00:55:57.643Z,96.15
2022-09-17T00:56:57.611Z,95.85
2022-09-17T00:57:57.593Z,95.34
2022-09-17T00:58:57.688Z,96.36
2022-09-17T00:59:57.682Z,96.77
2022-09-17T01:00:57.657Z,96.26
2022-09-17T01:01:57.578Z,96.56
2022-09-17T01:02:57.521Z,95.89
2022-09-17T01:03:57.660Z,96.36
2022-09-17T01:04:57.505Z,96.15
2022-09-17T01:05:57.498Z,96.41
2022-09-17T01:06:57.540Z,96.20
2022-09-17T01:07:57.505Z,97.38
2022-09-17T01:08:57.480Z,97.02
2022-09-17T01:09:57.445Z,96.81
2022-09-17T01:10:57.436Z,97.53
2022-09-17T01:11:57.532Z,97.74
2022-09-17T01:12:57.419Z,97.63
2022-09-17T01:13:57.473Z,97.83
2022-09-17T01:14:57.384Z,97.63
2022-09-17T01:15:57.544Z,97.42
2022-09-17T01:16:57.379Z,96.71
2022-09-17T01:17:57.398Z,96.71
2022-09-17T01:18:57.429Z,97.74
2022-09-17T01:19:57.351Z,96.61
2022-09-17T01:20:57.321Z,96.71
2022-09-17T01:21:57.323Z,96.10
2022-09-17T01:22:57.304Z,95.38
2022-09-17T01:23:57.310Z,95.38
2022-09-17T01:24:57.289Z,96.30
2022-09-17T01:25:57.323Z,96.20
2022-09-17T01:26:57.270Z,96.30
2022-09-17T01:27:57.259Z,96.71
2022-09-17T01:28:57.280Z,96.75
2022-09-17T01:29:57.310Z,96.30
2022-09-17T01:30:57.302Z,96.61
2022-09-17T01:31:57.326Z,96.30
2022-09-17T01:32:57.186Z,96.66
2022-09-17T01:33:57.180Z,96.41
2022-09-17T01:34:57.254Z,96.20
2022-09-17T01:35:57.175Z,96.41
2022-09-17T01:36:57.169Z,96.41
2022-09-17T01:37:57.156Z,97.12
2022-09-17T01:38:57.160Z,97.37
2022-09-17T01:39:57.208Z,96.55
2022-09-17T01:40:57.112Z,96.34
2022-09-17T01:41:57.142Z,95.02
2022-09-17T01:42:57.104Z,96.30
2022-09-17T01:43:57.088Z,96.61
2022-09-17T01:44:57.059Z,96.41
2022-09-17T01:45:57.126Z,97.02
2022-09-17T01:46:57.153Z,95.12
2022-09-17T01:47:57.161Z,95.07
2022-09-17T01:48:57.076Z,96.20
2022-09-17T01:49:57.006Z,97.33
2022-09-17T01:50:57.017Z,96.51
2022-09-17T01:51:56.995Z,96.71
2022-09-17T01:52:57.071Z,97.12
2022-09-17T01:53:57.052Z,97.63
2022-09-17T01:54:56.995Z,96.14
2022-09-17T01:55:57.062Z,95.59
2022-09-17T01:56:56.969Z,95.53
2022-09-17T01:57:56.975Z,95.94
2022-09-17T01:58:56.955Z,95.94
2022-09-17T01:59:56.905Z,96.34
2022-09-17T02:00:56.959Z,97.16
2022-09-17T02:01:56.977Z,97.47
2022-09-17T02:02:56.883Z,97.98
2022-09-17T02:03:56.980Z,98.08
2022-09-17T02:04:56.877Z,98.80
2022-09-17T02:05:56.853Z,98.90
2022-09-17T02:06:56.832Z,99.52
2022-09-17T02:07:56.806Z,99.56
2022-09-17T02:08:56.871Z,99.99
2022-09-17T02:09:56.801Z,99.56
2022-09-17T02:10:56.917Z,99.99
2022-09-17T02:11:56.777Z,99.99
2022-09-17T02:12:56.788Z,99.99
2022-09-17T02:13:56.773Z,99.82
2022-09-17T02:14:56.759Z,99.10
2022-09-17T02:15:56.794Z,99.10
2022-09-17T02:16:56.716Z,98.99
2022-09-17T02:17:56.703Z,97.77
2022-09-17T02:18:56.877Z,97.82
2022-09-17T02:19:56.835Z,98.33
2022-09-17T02:20:56.733Z,98.85
2022-09-17T02:21:56.671Z,99.15
2022-09-17T02:22:56.676Z,98.74
2022-09-17T02:23:56.657Z,99.46
2022-09-17T02:24:56.649Z,99.99
2022-09-17T02:25:56.610Z,99.99
2022-09-17T02:26:56.605Z,99.99
2022-09-17T02:27:56.602Z,99.46
2022-09-17T02:28:56.619Z,99.77
2022-09-17T02:29:56.574Z,99.46
2022-09-17T02:30:56.621Z,98.74
2022-09-17T02:31:56.587Z,98.85
2022-09-17T02:32:56.642Z,99.05
2022-09-17T02:33:56.579Z,99.56
2022-09-17T02:34:56.543Z,99.99
2022-09-17T02:35:56.616Z,99.99
2022-09-17T02:36:56.498Z,99.99
2022-09-17T02:37:56.489Z,99.66
2022-09-17T02:38:56.515Z,98.65
2022-09-17T02:39:56.519Z,98.44
2022-09-17T02:40:56.462Z,98.95
2022-09-17T02:41:56.473Z,98.90
2022-09-17T02:42:56.440Z,99.52
2022-09-17T02:43:56.426Z,98.74
2022-09-17T02:44:56.409Z,98.90
2022-09-17T02:45:56.407Z,98.80
2022-09-17T02:46:56.456Z,99.05
2022-09-17T02:47:56.466Z,98.49
2022-09-17T02:48:56.436Z,98.03
2022-09-17T02:49:56.347Z,97.82
2022-09-17T02:50:56.453Z,98.08
2022-09-17T02:51:56.447Z,98.33
2022-09-17T02:52:56.326Z,97.78
2022-09-17T02:53:56.450Z,98.03
2022-09-17T02:54:56.303Z,98.60
2022-09-17T02:55:56.306Z,98.80
2022-09-17T02:56:56.300Z,99.52
2022-09-17T02:57:56.346Z,99.01
2022-09-17T02:58:56.291Z,97.88
2022-09-17T02:59:56.253Z,97.67
2022-09-17T03:00:56.288Z,98.24
2022-09-17T03:01:56.322Z,99.01
2022-09-17T03:02:56.244Z,99.01
2022-09-17T03:03:56.205Z,99.11
2022-09-17T03:04:56.224Z,99.41
2022-09-17T03:05:56.193Z,99.11
2022-09-17T03:06:56.216Z,99.21
2022-09-17T03:07:56.301Z,99.62
2022-09-17T03:08:56.259Z,99.93
2022-09-17T03:09:56.154Z,99.72
2022-09-17T03:10:56.131Z,99.41
2022-09-17T03:11:56.123Z,99.52
2022-09-17T03:12:56.097Z,99.99
2022-09-17T03:13:56.199Z,99.93
2022-09-17T03:14:56.103Z,99.72
2022-09-17T03:15:56.089Z,99.62
2022-09-17T03:16:56.074Z,99.72
2022-09-17T03:17:56.057Z,99.72
2022-09-17T03:18:56.070Z,99.82
2022-09-17T03:19:56.033Z,99.99
2022-09-17T03:20:56.074Z,99.99
2022-09-17T03:21:56.025Z,99.99
2022-09-17T03:22:56.004Z,99.99
2022-09-17T03:23:56.153Z,99.99
2022-09-17T03:24:55.963Z,99.99
2022-09-17T03:25:56.014Z,99.99
2022-09-17T03:26:55.984Z,99.82
2022-09-17T03:27:55.974Z,99.99
2022-09-17T03:28:55.968Z,99.77
2022-09-17T03:29:55.911Z,99.87
2022-09-17T03:30:55.952Z,99.99
2022-09-17T03:31:55.919Z,99.99
2022-09-17T03:32:55.882Z,99.99
2022-09-17T03:33:55.908Z,99.99
2022-09-17T03:34:55.864Z,99.99
2022-09-17T03:35:55.889Z,99.99
2022-09-17T03:36:55.835Z,99.99
2022-09-17T03:37:55.856Z,99.99
2022-09-17T03:38:55.874Z,99.99
2022-09-17T03:39:55.975Z,99.99
2022-09-17T03:40:55.798Z,99.99
2022-09-17T03:41:55.798Z,99.99
2022-09-17T03:42:55.775Z,99.99
2022-09-17T03:43:55.793Z,99.99
2022-09-17T03:44:55.770Z,99.99
2022-09-17T03:45:55.776Z,99.99
2022-09-17T03:46:55.775Z,99.99
2022-09-17T03:47:55.719Z,99.99
2022-09-17T03:48:55.730Z,99.99
2022-09-17T03:49:55.748Z,99.99
2022-09-17T03:50:55.685Z,99.99
2022-09-17T03:51:55.696Z,99.62
2022-09-17T03:52:55.664Z,99.82
2022-09-17T03:53:55.741Z,99.99
2022-09-17T03:54:55.648Z,99.99
2022-09-17T03:55:55.744Z,99.99
2022-09-17T03:56:55.611Z,99.99
2022-09-17T03:57:55.625Z,99.82
2022-09-17T03:58:55.631Z,99.82
2022-09-17T03:59:55.682Z,99.52
2022-09-17T04:00:55.587Z,99.62
2022-09-17T04:01:55.706Z,99.62
2022-09-17T04:02:55.614Z,99.72
2022-09-17T04:03:55.892Z,99.41
2022-09-17T04:04:55.555Z,99.99
2022-09-17T04:05:55.531Z,99.99
2022-09-17T04:06:55.515Z,99.72
2022-09-17T04:07:55.517Z,99.93
2022-09-17T04:08:55.502Z,99.99
2022-09-17T04:09:55.554Z,99.99
2022-09-17T04:10:55.471Z,99.93
2022-09-17T04:11:55.581Z,99.99
2022-09-17T04:12:55.437Z,99.93
2022-09-17T04:13:55.636Z,99.99
2022-09-17T04:14:55.474Z,99.99
2022-09-17T04:15:55.495Z,99.99
2022-09-17T04:16:55.415Z,99.99
2022-09-17T04:17:55.405Z,99.99
2022-09-17T04:18:55.371Z,99.99
2022-09-17T04:19:55.394Z,99.99
2022-09-17T04:20:55.359Z,99.99
2022-09-17T04:21:55.348Z,99.99
2022-09-17T04:22:55.370Z,99.99
2022-09-17T04:23:55.325Z,99.99
2022-09-17T04:24:55.429Z,99.99
2022-09-17T04:25:55.308Z,99.99
2022-09-17T04:26:55.299Z,99.99
2022-09-17T04:27:55.389Z,99.99
2022-09-17T04:28:55.375Z,99.99
2022-09-17T04:29:55.324Z,99.99
2022-09-17T04:30:55.322Z,99.99
2022-09-17T04:31:55.275Z,99.99
2022-09-17T04:32:55.327Z,99.99
2022-09-17T04:33:55.245Z,99.99
2022-09-17T04:34:55.209Z,99.99
2022-09-17T04:35:55.229Z,99.99
2022-09-17T04:36:55.190Z,99.99
2022-09-17T04:37:55.172Z,99.99
2022-09-17T04:38:55.184Z,99.99
2022-09-17T04:39:55.240Z,99.99
2022-09-17T04:40:55.146Z,99.99
2022-09-17T04:41:55.169Z,99.99
2022-09-17T04:42:55.135Z,99.99
2022-09-17T04:43:55.273Z,99.99
2022-09-17T04:44:55.095Z,99.99
2022-09-17T04:45:55.088Z,99.99
2022-09-17T04:46:55.171Z,99.99
2022-09-17T04:47:55.091Z,99.99
2022-09-17T04:48:55.091Z,99.99
2022-09-17T04:49:55.039Z,99.99
2022-09-17T04:50:55.069Z,99.99
2022-09-17T04:51:55.018Z,99.99
2022-09-17T04:52:55.231Z,99.99
2022-09-17T04:53:55.012Z,99.99
2022-09-17T04:54:54.998Z,99.99
2022-09-17T04:55:54.986Z,99.99
2022-09-17T04:56:54.979Z,99.99
2022-09-17T04:57:54.980Z,99.99
2022-09-17T04:58:54.955Z,99.99
2022-09-17T04:59:55.114Z,99.99
2022-09-17T05:00:55.029Z,99.99
2022-09-17T05:01:54.942Z,99.99
2022-09-17T05:02:54.965Z,99.99
2022-09-17T05:03:54.918Z,99.99
2022-09-17T05:04:54.913Z,99.99
2022-09-17T05:05:54.864Z,99.99
2022-09-17T05:06:54.930Z,99.99
2022-09-17T05:07:54.873Z,99.99
2022-09-17T05:08:54.904Z,99.99
2022-09-17T05:09:54.858Z,99.99
2022-09-17T05:10:54.825Z,99.99
2022-09-17T05:11:54.821Z,99.99
2022-09-17T05:12:54.915Z,99.99
2022-09-17T05:13:54.799Z,99.99
2022-09-17T05:14:54.821Z,99.99
2022-09-17T05:15:54.882Z,99.99
2022-09-17T05:16:54.776Z,99.99
2022-09-17T05:17:54.724Z,99.99
2022-09-17T05:18:54.763Z,99.99
2022-09-17T05:19:54.734Z,99.99
2022-09-17T05:20:54.772Z,99.99
2022-09-17T05:21:54.684Z,99.99
2022-09-17T05:22:54.768Z,99.99
2022-09-17T05:23:54.736Z,99.99
2022-09-17T05:24:54.736Z,99.99
2022-09-17T05:25:54.643Z,99.99
2022-09-17T05:26:54.667Z,99.99
2022-09-17T05:27:54.686Z,99.41
2022-09-17T05:28:54.698Z,99.62
2022-09-17T05:29:54.609Z,99.99
2022-09-17T05:30:54.659Z,99.99
2022-09-17T05:31:54.707Z,99.99
2022-09-17T05:32:54.623Z,99.99
2022-09-17T05:33:54.622Z,99.99
2022-09-17T05:34:54.567Z,99.99
2022-09-17T05:35:54.529Z,99.99
2022-09-17T05:36:54.563Z,99.99
2022-09-17T05:37:54.508Z,99.99
2022-09-17T05:38:54.522Z,99.99
2022-09-17T05:39:54.505Z,99.99
2022-09-17T05:40:54.507Z,99.99
2022-09-17T05:41:54.500Z,99.99
2022-09-17T05:42:54.459Z,99.99
2022-09-17T05:43:54.494Z,99.99
2022-09-17T05:44:54.454Z,99.99
2022-09-17T05:45:54.421Z,99.99
2022-09-17T05:46:54.468Z,99.99
2022-09-17T05:47:54.511Z,99.99
2022-09-17T05:48:54.496Z,99.99
2022-09-17T05:49:54.393Z,99.99
2022-09-17T05:50:54.368Z,99.99
2022-09-17T05:51:54.377Z,99.99
2022-09-17T05:52:54.358Z,99.99
2022-09-17T05:53:54.364Z,99.99
2022-09-17T05:54:54.369Z,99.99
2022-09-17T05:55:54.307Z,99.99
2022-09-17T05:56:54.298Z,99.99
2022-09-17T05:57:54.292Z,99.99
2022-09-17T05:58:54.380Z,99.99
2022-09-17T05:59:54.339Z,99.99
2022-09-17T06:00:54.290Z,99.99
2022-09-17T06:01:54.331Z,99.99
2022-09-17T06:02:54.305Z,99.99
2022-09-17T06:03:54.359Z,99.99
2022-09-17T06:04:54.248Z,99.99
2022-09-17T06:05:54.205Z,99.99
2022-09-17T06:06:54.269Z,99.46
2022-09-17T06:07:54.179Z,99.26
2022-09-17T06:08:54.277Z,99.98
2022-09-17T06:09:54.177Z,99.99
2022-09-17T06:10:55.419Z,99.99
2022-09-17T06:11:54.184Z,99.99
2022-09-17T06:12:54.122Z,99.99
2022-09-17T06:13:54.132Z,99.99
2022-09-17T06:14:54.147Z,99.99
2022-09-17T06:15:54.204Z,99.99
2022-09-17T06:16:54.079Z,99.99
2022-09-17T06:17:54.085Z,99.99
2022-09-17T06:18:54.082Z,99.99
2022-09-17T06:19:54.180Z,99.99
2022-09-17T06:20:54.033Z,99.99
2022-09-17T06:21:54.020Z,99.99
2022-09-17T06:22:54.043Z,99.99
2022-09-17T06:23:54.036Z,99.99
2022-09-17T06:24:54.002Z,99.99
2022-09-17T06:25:53.996Z,99.99
2022-09-17T06:26:53.990Z,99.99
2022-09-17T06:27:54.001Z,99.99
2022-09-17T06:28:54.006Z,99.99
2022-09-17T06:29:53.936Z,99.99
2022-09-17T06:30:53.932Z,99.99
2022-09-17T06:31:53.978Z,99.99
2022-09-17T06:32:53.899Z,99.79
2022-09-17T06:33:54.220Z,98.52
2022-09-17T06:34:53.925Z,99.29
2022-09-17T06:35:53.987Z,98.93
2022-09-17T06:36:53.855Z,99.08
2022-09-17T06:37:53.891Z,99.59
2022-09-17T06:38:53.850Z,98.77
2022-09-17T06:39:53.899Z,98.47
2022-09-17T06:40:53.822Z,98.06
2022-09-17T06:41:53.911Z,97.86
2022-09-17T06:42:53.849Z,97.45
2022-09-17T06:43:53.805Z,97.08
2022-09-17T06:44:53.852Z,97.75
2022-09-17T06:45:53.800Z,97.55
2022-09-17T06:46:53.774Z,97.75
2022-09-17T06:47:53.747Z,97.75
2022-09-17T06:48:53.978Z,97.65
2022-09-17T06:49:53.724Z,97.55
2022-09-17T06:50:53.716Z,97.86
2022-09-17T06:51:53.854Z,97.81
2022-09-17T06:52:53.697Z,97.14
2022-09-17T06:53:53.747Z,96.94
2022-09-17T06:54:53.699Z,97.45
2022-09-17T06:55:53.689Z,96.94
2022-09-17T06:56:53.640Z,97.65
2022-09-17T06:57:53.638Z,97.40
2022-09-17T06:58:53.647Z,97.24
2022-09-17T06:59:53.627Z,97.91
2022-09-17T07:00:53.660Z,97.50
2022-09-17T07:01:53.672Z,97.40
2022-09-17T07:02:53.575Z,97.91
2022-09-17T07:03:53.616Z,97.40
2022-09-17T07:04:53.556Z,97.50
2022-09-17T07:05:53.609Z,95.16
2022-09-17T07:06:53.538Z,95.97
2022-09-17T07:07:53.640Z,95.87
2022-09-17T07:08:53.571Z,95.97
2022-09-17T07:09:53.523Z,96.28
2022-09-17T07:10:53.484Z,97.05
2022-09-17T07:11:53.480Z,97.25
2022-09-17T07:12:53.465Z,97.31
2022-09-17T07:13:53.467Z,98.33
2022-09-17T07:14:53.468Z,97.31
2022-09-17T07:15:53.504Z,97.22
2022-09-17T07:16:53.440Z,96.10
2022-09-17T07:17:53.409Z,96.20
2022-09-17T07:18:53.436Z,96.01
2022-09-17T07:19:53.385Z,96.72
2022-09-17T07:20:53.399Z,94.69
2022-09-17T07:21:53.388Z,89.75
2022-09-17T07:22:53.371Z,91.27
2022-09-17T07:23:53.485Z,92.19
2022-09-17T07:24:53.352Z,88.32
2022-09-17T07:25:53.340Z,87.96
2022-09-17T07:26:53.316Z,89.54
2022-09-17T07:27:53.353Z,90.72
2022-09-17T07:28:53.321Z,91.29
2022-09-17T07:29:53.284Z,89.26
2022-09-17T07:30:53.339Z,89.56
2022-09-17T07:31:53.256Z,89.36
2022-09-17T07:32:53.260Z,89.66
2022-09-17T07:33:53.277Z,88.08
2022-09-17T07:34:53.249Z,85.84
2022-09-17T07:35:53.307Z,88.53
2022-09-17T07:36:53.219Z,89.48
2022-09-17T07:37:53.196Z,87.24
2022-09-17T07:38:53.176Z,90.46
2022-09-17T07:39:53.300Z,91.38
2022-09-17T07:40:53.175Z,87.81
2022-09-17T07:41:53.142Z,89.40
2022-09-17T07:42:53.155Z,89.30
2022-09-17T07:43:53.140Z,85.84
2022-09-17T07:44:53.188Z,88.39
2022-09-17T07:45:53.159Z,89.36
2022-09-17T07:46:53.134Z,86.51
2022-09-17T07:47:53.074Z,88.71
2022-09-17T07:48:53.140Z,85.25
2022-09-17T07:49:53.061Z,84.30
2022-09-17T07:50:53.078Z,88.30
2022-09-17T07:51:53.041Z,84.60
2022-09-17T07:52:53.047Z,84.20
2022-09-17T07:53:53.046Z,85.11
2022-09-17T07:54:53.011Z,83.75
2022-09-17T07:55:53.116Z,80.46
2022-09-17T07:56:53.061Z,82.09
2022-09-17T07:57:53.021Z,81.78
2022-09-17T07:58:52.982Z,83.45
2022-09-17T07:59:52.957Z,85.13
2022-09-17T08:00:52.961Z,81.68
2022-09-17T08:01:53.096Z,81.68
2022-09-17T08:02:53.082Z,83.45
2022-09-17T08:03:53.044Z,85.68
2022-09-17T08:04:52.910Z,84.97
2022-09-17T08:05:52.886Z,84.26
2022-09-17T08:06:52.880Z,86.59
2022-09-17T08:07:52.895Z,85.58
2022-09-17T08:08:52.948Z,84.36
2022-09-17T08:09:52.867Z,86.29
2022-09-17T08:10:52.912Z,85.47
2022-09-17T08:11:56.804Z,85.27
2022-09-17T08:12:52.806Z,84.66
2022-09-17T08:13:53.018Z,83.85
2022-09-17T08:14:52.863Z,87.30
2022-09-17T08:15:52.835Z,83.48
2022-09-17T08:16:52.814Z,86.83
2022-09-17T08:17:52.753Z,83.83
2022-09-17T08:18:53.035Z,89.31
2022-09-17T08:19:52.771Z,86.51
2022-09-17T08:20:52.781Z,86.76
2022-09-17T08:21:52.736Z,86.08
2022-09-17T08:22:52.730Z,87.61
2022-09-17T08:23:52.724Z,88.77
2022-09-17T08:24:52.763Z,87.45
2022-09-17T08:25:52.681Z,89.48
2022-09-17T08:26:52.701Z,88.71
2022-09-17T08:27:52.764Z,88.92
2022-09-17T08:28:52.678Z,90.44
2022-09-17T08:29:52.656Z,91.05
2022-09-17T08:30:52.675Z,90.64
2022-09-17T08:31:52.720Z,89.42
2022-09-17T08:32:52.748Z,91.42
2022-09-17T08:33:52.590Z,88.16
2022-09-17T08:34:54.864Z,89.59
2022-09-17T08:35:53.551Z,86.22
2022-09-17T08:36:52.608Z,90.25
2022-09-17T08:37:52.553Z,87.41
2022-09-17T08:38:52.633Z,87.61
2022-09-17T08:39:52.584Z,88.59
2022-09-17T08:40:52.545Z,89.36
2022-09-17T08:41:52.495Z,89.68
2022-09-17T08:42:52.555Z,88.28
2022-09-17T08:43:52.615Z,86.51
2022-09-17T08:44:54.355Z,84.41
2022-09-17T08:45:52.458Z,83.29
2022-09-17T08:46:52.600Z,80.45
2022-09-17T08:47:52.430Z,81.97
2022-09-17T08:48:52.467Z,83.23
2022-09-17T08:49:52.447Z,82.42
2022-09-17T08:50:52.462Z,82.19
2022-09-17T08:51:52.379Z,85.13
2022-09-17T08:52:52.367Z,84.26
2022-09-17T08:53:52.384Z,84.30
2022-09-17T08:54:52.469Z,83.85
2022-09-17T08:55:52.388Z,84.36
2022-09-17T08:56:52.345Z,85.47
2022-09-17T08:57:52.333Z,84.46
2022-09-17T08:58:52.575Z,82.59
2022-09-17T08:59:52.419Z,82.05
2022-09-17T09:00:52.334Z,81.97
2022-09-17T09:01:52.364Z,81.77
2022-09-17T09:02:52.334Z,80.18
2022-09-17T09:03:52.607Z,78.15
2022-09-17T09:04:52.241Z,82.26
2022-09-17T09:05:52.236Z,80.64
2022-09-17T09:06:52.220Z,82.12
2022-09-17T09:07:52.228Z,76.86
2022-09-17T09:08:52.218Z,76.03
2022-09-17T09:09:52.183Z,79.22
2022-09-17T09:10:52.172Z,78.42
2022-09-17T09:11:52.169Z,76.19
2022-09-17T09:12:52.153Z,77.64
2022-09-17T09:13:52.190Z,77.95
2022-09-17T09:14:52.133Z,79.26
2022-09-17T09:15:52.285Z,80.01
2022-09-17T09:16:52.115Z,79.74
2022-09-17T09:17:52.120Z,83.09
2022-09-17T09:18:52.116Z,80.96
2022-09-17T09:19:52.096Z,80.86
2022-09-17T09:20:52.111Z,82.42
2022-09-17T09:21:52.149Z,82.01
2022-09-17T09:22:52.038Z,83.12
2022-09-17T09:23:52.140Z,82.66
2022-09-17T09:24:52.061Z,83.26
2022-09-17T09:25:52.023Z,83.20
2022-09-17T09:26:55.297Z,83.71
2022-09-17T09:27:53.031Z,84.12
2022-09-17T09:28:52.016Z,82.70
2022-09-17T09:29:52.021Z,81.82
2022-09-17T09:30:52.046Z,85.17
2022-09-17T09:31:52.135Z,83.51
2022-09-17T09:32:51.938Z,82.12
2022-09-17T09:33:51.950Z,83.45
2022-09-17T09:34:51.921Z,80.40
2022-09-17T09:35:51.942Z,82.12
2022-09-17T09:36:51.887Z,83.91
2022-09-17T09:37:51.935Z,83.51
2022-09-17T09:38:51.924Z,83.31
2022-09-17T09:39:51.962Z,80.57
2022-09-17T09:40:51.862Z,82.70
2022-09-17T09:41:51.897Z,81.38
2022-09-17T09:42:51.881Z,82.09
2022-09-17T09:44:12.665Z,83.75
2022-09-17T09:44:52.817Z,84.30
2022-09-17T09:45:51.793Z,85.58
2022-09-17T09:46:51.885Z,86.63
2022-09-17T09:47:51.887Z,86.94
2022-09-17T09:48:51.804Z,84.95
2022-09-17T09:49:51.796Z,86.77
2022-09-17T09:51:07.248Z,86.07
2022-09-17T09:51:52.733Z,85.62
2022-09-17T09:52:51.728Z,88.36
2022-09-17T09:53:51.734Z,87.99
2022-09-17T09:54:51.717Z,88.36
2022-09-17T09:55:51.713Z,85.25
2022-09-17T09:56:51.689Z,86.98
2022-09-17T09:57:51.663Z,87.99
2022-09-17T09:58:51.666Z,88.87
2022-09-17T09:59:51.635Z,86.63
2022-09-17T10:00:51.662Z,89.33
2022-09-17T10:01:51.821Z,84.80
2022-09-17T10:02:51.684Z,87.00
2022-09-17T10:03:51.730Z,85.84
2022-09-17T10:04:53.589Z,85.80
2022-09-17T10:05:51.644Z,83.47
2022-09-17T10:06:51.556Z,82.31
2022-09-17T10:07:51.625Z,86.13
2022-09-17T10:08:51.564Z,83.39
2022-09-17T10:09:51.528Z,80.22
2022-09-17T10:10:51.510Z,83.26
2022-09-17T10:11:51.630Z,81.95
2022-09-17T10:12:51.570Z,84.44
2022-09-17T10:13:51.593Z,79.68
2022-09-17T10:14:51.478Z,82.05
2022-09-17T10:15:51.599Z,83.17
2022-09-17T10:16:51.450Z,80.60
2022-09-17T10:17:51.521Z,82.12
2022-09-17T10:18:51.439Z,82.01
2022-09-17T10:19:51.537Z,81.99
2022-09-17T10:20:51.417Z,83.17
2022-09-17T10:21:51.512Z,81.62
2022-09-17T10:22:51.504Z,76.59
2022-09-17T10:23:51.434Z,78.05
2022-09-17T10:24:51.369Z,78.49
2022-09-17T10:25:51.366Z,78.79
2022-09-17T10:26:51.342Z,78.66
2022-09-17T10:27:51.420Z,80.88
2022-09-17T10:28:51.359Z,79.77
2022-09-17T10:29:51.308Z,78.66
2022-09-17T10:30:51.389Z,78.96
2022-09-17T10:31:51.581Z,78.45
2022-09-17T10:32:51.370Z,81.09
2022-09-17T10:33:51.283Z,80.04
2022-09-17T10:34:51.267Z,76.59
2022-09-17T10:35:51.354Z,78.11
2022-09-17T10:36:51.277Z,79.39
2022-09-17T10:37:51.388Z,79.53
2022-09-17T10:38:51.282Z,75.79
2022-09-17T10:39:51.342Z,78.01
2022-09-17T10:40:51.273Z,80.13
2022-09-17T10:41:51.463Z,77.81
2022-09-17T10:42:51.178Z,76.53
2022-09-17T10:43:51.152Z,77.61
2022-09-17T10:44:51.181Z,77.54
2022-09-17T10:45:51.144Z,76.53
2022-09-17T10:46:51.228Z,76.77
2022-09-17T10:47:51.168Z,77.48
2022-09-17T10:48:51.181Z,79.54
2022-09-17T10:49:51.196Z,78.42
2022-09-17T10:50:51.085Z,79.34
2022-09-17T10:51:51.177Z,78.73
2022-09-17T10:52:51.074Z,77.61
2022-09-17T10:53:51.094Z,80.35
2022-09-17T10:54:51.037Z,78.42
2022-09-17T10:55:51.038Z,77.17
2022-09-17T10:56:51.062Z,75.79
2022-09-17T10:57:51.102Z,74.91
2022-09-17T10:58:51.181Z,76.43
2022-09-17T10:59:51.017Z,75.22
2022-09-17T11:00:50.960Z,76.74
2022-09-17T11:01:51.097Z,77.59
2022-09-17T11:02:51.064Z,80.43
2022-09-17T11:03:51.036Z,77.18
2022-09-17T11:04:50.927Z,75.76
2022-09-17T11:05:50.937Z,76.47
2022-09-17T11:06:51.464Z,78.66
2022-09-17T11:07:51.231Z,79.64
2022-09-17T11:08:50.872Z,75.99
2022-09-17T11:09:50.878Z,73.76
2022-09-17T11:10:50.850Z,75.79
2022-09-17T11:11:50.872Z,77.07
2022-09-17T11:12:50.914Z,75.96
2022-09-17T11:13:50.833Z,78.55
2022-09-17T11:14:50.839Z,75.11
2022-09-17T11:15:53.031Z,72.75
2022-09-17T11:16:50.967Z,76.16
2022-09-17T11:17:50.788Z,77.17
2022-09-17T11:18:50.778Z,74.51
2022-09-17T11:19:50.748Z,73.63
2022-09-17T11:20:50.830Z,74.10
2022-09-17T11:21:50.726Z,74.21
2022-09-17T11:22:50.788Z,74.51
2022-09-17T11:23:50.865Z,77.31
2022-09-17T11:24:51.038Z,75.18
2022-09-17T11:25:50.737Z,76.36
2022-09-17T11:26:50.672Z,74.64
2022-09-17T11:27:50.698Z,81.18
2022-09-17T11:28:50.699Z,75.11
2022-09-17T11:29:50.641Z,76.39
2022-09-17T11:30:50.700Z,73.90
2022-09-17T11:31:50.665Z,74.60
2022-09-17T11:32:50.687Z,77.07
2022-09-17T11:33:50.777Z,74.64
2022-09-17T11:34:50.742Z,76.43
2022-09-17T11:35:50.580Z,74.48
2022-09-17T11:36:50.555Z,73.76
2022-09-17T11:37:50.561Z,75.08
2022-09-17T11:38:50.558Z,76.60
2022-09-17T11:39:50.713Z,75.49
2022-09-17T11:40:50.518Z,76.97
2022-09-17T11:41:50.573Z,75.76
2022-09-17T11:42:50.662Z,75.99
2022-09-17T11:43:50.616Z,78.49
2022-09-17T11:44:50.473Z,74.64
2022-09-17T11:45:50.479Z,76.73
2022-09-17T11:46:50.562Z,74.37
2022-09-17T11:47:50.470Z,71.53
2022-09-17T11:48:50.467Z,74.98
2022-09-17T11:49:50.416Z,75.55
2022-09-17T11:50:50.519Z,73.90
2022-09-17T11:51:50.885Z,73.69
2022-09-17T11:52:50.444Z,75.68
2022-09-17T11:53:50.374Z,74.97
2022-09-17T11:54:50.375Z,73.35
2022-09-17T11:55:50.491Z,75.68
2022-09-17T11:56:50.337Z,73.75
2022-09-17T11:57:50.380Z,71.64
2022-09-17T11:58:50.343Z,73.25
2022-09-17T11:59:50.372Z,75.13
2022-09-17T12:00:51.073Z,73.62
2022-09-17T12:01:50.475Z,74.26
2022-09-17T12:02:50.375Z,71.73
2022-09-17T12:03:50.258Z,75.57
2022-09-17T12:04:50.249Z,73.46
2022-09-17T12:05:50.235Z,74.16
2022-09-17T12:06:50.218Z,69.95
2022-09-17T12:07:50.264Z,73.22
2022-09-17T12:08:50.278Z,72.55
2022-09-17T12:09:50.822Z,75.28
2022-09-17T12:10:50.175Z,75.28
2022-09-17T12:11:50.285Z,71.06
2022-09-17T12:12:50.728Z,76.16
2022-09-17T12:13:50.143Z,74.91
2022-09-17T12:14:50.152Z,77.03
2022-09-17T12:15:53.379Z,77.54
2022-09-17T12:16:50.575Z,76.63
2022-09-17T12:17:50.503Z,76.83
2022-09-17T12:18:50.828Z,75.79
2022-09-17T12:19:50.110Z,78.41
2022-09-17T12:20:50.105Z,76.18
2022-09-17T12:21:50.104Z,75.06
2022-09-17T12:22:50.095Z,69.22
2022-09-17T12:23:50.046Z,72.91
2022-09-17T12:24:50.031Z,68.38
2022-09-17T12:25:50.015Z,67.44
2022-09-17T12:26:50.210Z,67.14
2022-09-17T12:27:50.193Z,65.53
2022-09-17T12:28:49.975Z,68.41
2022-09-17T12:29:49.968Z,70.16
2022-09-17T12:30:50.002Z,68.38
2022-09-17T12:31:50.037Z,68.82
2022-09-17T12:32:49.950Z,68.45
2022-09-17T12:33:49.929Z,65.93
2022-09-17T12:34:49.913Z,69.32
2022-09-17T12:36:03.916Z,70.39
2022-09-17T12:36:51.061Z,74.40
2022-09-17T12:37:49.872Z,73.82
2022-09-17T12:38:49.931Z,71.77
2022-09-17T12:39:49.929Z,73.18
2022-09-17T12:40:49.866Z,72.41
2022-09-17T12:41:49.885Z,67.50
2022-09-17T12:42:49.841Z,69.52
2022-09-17T12:43:49.931Z,68.41
2022-09-17T12:44:49.870Z,70.50
2022-09-17T12:45:50.974Z,70.32
2022-09-17T12:46:49.944Z,69.62
2022-09-17T12:47:49.782Z,66.27
2022-09-17T12:48:49.859Z,67.68
2022-09-17T12:49:49.760Z,69.05
2022-09-17T12:50:49.754Z,62.91
2022-09-17T12:51:49.791Z,65.26
2022-09-17T12:52:49.854Z,59.59